Novi Sad, Serbia
Current Conditions -  °F | °C
As of 5:30 AM on Sunday 25 Jan 2015 (Local Time) from LYBT Reporting Station
Broken Clouds Broken Clouds  
Wind Chill: 29°   Ceiling: 3300
Heat Index: 36°   Visibility: 6mi
Dew Point: 34°   Wind: 8mph
Humidity: 93%   Direction: 280°W
Pressure: 29.91"   Gusts: NA
Location:  45.25°N, 19.85°E
Report Text: LYBT 250330Z 28007KT 9999 SCT010 BKN033 02/01 Q1013 NOSIG
Loading
Personal Weather Stations






























Interactive Weather Map New forecast layout! Learn more

10-Day Weather Forecast

Advertisements
Track Severe Weather on mobile